Union, Maine
Current Conditions -  °F | °C
As of 4:35 AM on Thursday 27 Nov 2014 (Local Time) from KRKD Reporting Station
Overcast Overcast  
Wind Chill: 21°   Ceiling: 2200
Heat Index: 30°   Visibility: 3mi
Dew Point: 27°   Wind: 12mph
Humidity: 86%   Direction: 330°NNW
Pressure: 29.64"   Gusts: 29mph
Location:  44.21°N, 69.27°W
Report Text: KRKD 270935Z AUTO 33010G25KT 300V010 3SM BKN022 OVC027 M01/M03 A2964 RMK AO1 P0001
Loading
Personal Weather Stations






























Interactive Weather Map New forecast layout! Learn more

10-Day Weather Forecast

Advertisements
Track Severe Weather on mobile